sensor_id;sensor_type;location;lat;lon;timestamp;P1;durP1;ratioP1;P2;durP2;ratioP2
41952;SDS011;63613;28.200;112.870;2022-11-30T00:01:20;10.52;;;4.45;;
41952;SDS011;63613;28.200;112.870;2022-11-30T00:03:51;15.80;;;4.85;;
41952;SDS011;63613;28.200;112.870;2022-11-30T00:06:19;12.48;;;4.50;;
41952;SDS011;63613;28.200;112.870;2022-11-30T00:08:53;12.77;;;4.65;;
41952;SDS011;63613;28.200;112.870;2022-11-30T00:11:22;9.63;;;4.40;;
41952;SDS011;63613;28.200;112.870;2022-11-30T00:13:50;10.15;;;5.22;;
41952;SDS011;63613;28.200;112.870;2022-11-30T00:16:17;13.88;;;4.53;;
41952;SDS011;63613;28.200;112.870;2022-11-30T00:18:45;16.17;;;4.70;;
41952;SDS011;63613;28.200;112.870;2022-11-30T00:21:12;12.07;;;4.05;;
41952;SDS011;63613;28.200;112.870;2022-11-30T00:23:43;12.10;;;4.85;;
41952;SDS011;63613;28.200;112.870;2022-11-30T00:26:12;12.88;;;4.72;;
41952;SDS011;63613;28.200;112.870;2022-11-30T00:28:41;12.77;;;4.47;;
41952;SDS011;63613;28.200;112.870;2022-11-30T00:31:11;14.48;;;4.88;;
41952;SDS011;63613;28.200;112.870;2022-11-30T00:33:40;12.32;;;5.05;;
41952;SDS011;63613;28.200;112.870;2022-11-30T00:36:09;12.57;;;5.10;;
41952;SDS011;63613;28.200;112.870;2022-11-30T00:38:38;12.52;;;4.93;;
41952;SDS011;63613;28.200;112.870;2022-11-30T00:41:26;10.65;;;4.55;;
41952;SDS011;63613;28.200;112.870;2022-11-30T00:43:53;14.27;;;5.03;;
41952;SDS011;63613;28.200;112.870;2022-11-30T00:46:20;14.82;;;4.88;;
41952;SDS011;63613;28.200;112.870;2022-11-30T00:48:47;11.82;;;4.57;;
41952;SDS011;63613;28.200;112.870;2022-11-30T00:51:14;14.00;;;4.88;;
41952;SDS011;63613;28.200;112.870;2022-11-30T00:53:41;11.70;;;4.75;;
41952;SDS011;63613;28.200;112.870;2022-11-30T00:56:08;12.15;;;4.68;;
41952;SDS011;63613;28.200;112.870;2022-11-30T00:58:39;13.70;;;4.78;;
41952;SDS011;63613;28.200;112.870;2022-11-30T01:01:09;14.60;;;4.95;;
41952;SDS011;63613;28.200;112.870;2022-11-30T01:03:36;10.30;;;4.28;;
41952;SDS011;63613;28.200;112.870;2022-11-30T01:06:03;13.45;;;4.55;;
41952;SDS011;63613;28.200;112.870;2022-11-30T01:08:33;12.30;;;4.22;;
41952;SDS011;63613;28.200;112.870;2022-11-30T01:11:42;11.57;;;4.55;;
41952;SDS011;63613;28.200;112.870;2022-11-30T01:13:53;13.73;;;4.50;;
41952;SDS011;63613;28.200;112.870;2022-11-30T01:16:24;15.63;;;5.53;;
41952;SDS011;63613;28.200;112.870;2022-11-30T01:18:53;19.23;;;4.72;;
41952;SDS011;63613;28.200;112.870;2022-11-30T01:21:22;12.40;;;4.70;;
41952;SDS011;63613;28.200;112.870;2022-11-30T01:23:50;11.63;;;5.10;;
41952;SDS011;63613;28.200;112.870;2022-11-30T01:26:18;16.20;;;4.88;;
41952;SDS011;63613;28.200;112.870;2022-11-30T01:28:49;22.45;;;5.70;;
41952;SDS011;63613;28.200;112.870;2022-11-30T01:31:20;12.75;;;5.13;;
41952;SDS011;63613;28.200;112.870;2022-11-30T01:34:06;19.77;;;5.75;;
41952;SDS011;63613;28.200;112.870;2022-11-30T01:36:34;12.75;;;4.72;;
41952;SDS011;63613;28.200;112.870;2022-11-30T01:39:05;18.80;;;4.85;;
41952;SDS011;63613;28.200;112.870;2022-11-30T01:41:34;11.73;;;4.32;;
41952;SDS011;63613;28.200;112.870;2022-11-30T01:49:36;15.18;;;5.43;;
41952;SDS011;63613;28.200;112.870;2022-11-30T01:52:10;13.93;;;5.05;;
41952;SDS011;63613;28.200;112.870;2022-11-30T01:54:45;14.05;;;5.50;;
41952;SDS011;63613;28.200;112.870;2022-11-30T01:57:24;14.40;;;4.95;;
41952;SDS011;63613;28.200;112.870;2022-11-30T02:00:04;11.88;;;5.18;;
41952;SDS011;63613;28.200;112.870;2022-11-30T02:02:42;11.63;;;4.97;;
41952;SDS011;63613;28.200;112.870;2022-11-30T02:05:27;13.07;;;4.75;;
41952;SDS011;63613;28.200;112.870;2022-11-30T02:07:55;12.77;;;4.57;;
41952;SDS011;63613;28.200;112.870;2022-11-30T02:10:24;12.25;;;4.43;;
41952;SDS011;63613;28.200;112.870;2022-11-30T02:15:56;12.93;;;5.05;;
41952;SDS011;63613;28.200;112.870;2022-11-30T02:18:31;10.80;;;4.05;;
41952;SDS011;63613;28.200;112.870;2022-11-30T02:26:55;8.38;;;4.60;;
41952;SDS011;63613;28.200;112.870;2022-11-30T02:32:05;9.30;;;4.57;;
41952;SDS011;63613;28.200;112.870;2022-11-30T02:35:02;8.93;;;3.92;;
41952;SDS011;63613;28.200;112.870;2022-11-30T02:37:32;9.93;;;4.25;;
41952;SDS011;63613;28.200;112.870;2022-11-30T02:40:02;10.73;;;4.50;;
41952;SDS011;63613;28.200;112.870;2022-11-30T02:42:40;7.63;;;4.22;;
41952;SDS011;63613;28.200;112.870;2022-11-30T02:45:08;8.98;;;4.15;;
41952;SDS011;63613;28.200;112.870;2022-11-30T02:47:39;7.18;;;3.92;;
41952;SDS011;63613;28.200;112.870;2022-11-30T02:50:17;7.55;;;4.07;;
41952;SDS011;63613;28.200;112.870;2022-11-30T02:52:51;10.02;;;4.47;;
41952;SDS011;63613;28.200;112.870;2022-11-30T02:55:19;8.75;;;3.58;;
41952;SDS011;63613;28.200;112.870;2022-11-30T02:57:46;6.72;;;3.53;;
41952;SDS011;63613;28.200;112.870;2022-11-30T03:00:13;9.82;;;3.80;;
41952;SDS011;63613;28.200;112.870;2022-11-30T03:02:41;7.55;;;4.40;;
41952;SDS011;63613;28.200;112.870;2022-11-30T03:05:08;10.05;;;4.25;;
41952;SDS011;63613;28.200;112.870;2022-11-30T03:07:36;7.45;;;3.80;;
41952;SDS011;63613;28.200;112.870;2022-11-30T03:10:03;8.40;;;3.95;;
41952;SDS011;63613;28.200;112.870;2022-11-30T03:12:31;5.78;;;3.10;;
41952;SDS011;63613;28.200;112.870;2022-11-30T03:14:58;9.73;;;3.58;;
41952;SDS011;63613;28.200;112.870;2022-11-30T03:17:28;8.00;;;4.07;;
41952;SDS011;63613;28.200;112.870;2022-11-30T03:20:15;11.20;;;3.88;;
41952;SDS011;63613;28.200;112.870;2022-11-30T03:22:43;6.85;;;4.00;;
41952;SDS011;63613;28.200;112.870;2022-11-30T03:25:10;8.57;;;3.65;;
41952;SDS011;63613;28.200;112.870;2022-11-30T03:27:37;8.75;;;3.65;;
41952;SDS011;63613;28.200;112.870;2022-11-30T03:30:04;5.65;;;3.58;;
41952;SDS011;63613;28.200;112.870;2022-11-30T03:32:32;8.13;;;3.40;;
41952;SDS011;63613;28.200;112.870;2022-11-30T03:34:59;9.27;;;3.60;;
41952;SDS011;63613;28.200;112.870;2022-11-30T03:37:46;9.52;;;3.60;;
41952;SDS011;63613;28.200;112.870;2022-11-30T03:40:13;8.45;;;4.32;;
41952;SDS011;63613;28.200;112.870;2022-11-30T03:42:40;11.85;;;4.50;;
41952;SDS011;63613;28.200;112.870;2022-11-30T03:45:07;9.30;;;3.90;;
41952;SDS011;63613;28.200;112.870;2022-11-30T03:47:34;8.55;;;4.22;;
41952;SDS011;63613;28.200;112.870;2022-11-30T03:50:03;10.95;;;4.63;;
41952;SDS011;63613;28.200;112.870;2022-11-30T03:52:30;8.20;;;3.80;;
41952;SDS011;63613;28.200;112.870;2022-11-30T03:54:57;9.75;;;3.75;;
41952;SDS011;63613;28.200;112.870;2022-11-30T03:57:24;7.72;;;3.53;;
41952;SDS011;63613;28.200;112.870;2022-11-30T03:59:51;6.72;;;3.45;;
41952;SDS011;63613;28.200;112.870;2022-11-30T04:02:18;10.25;;;4.15;;
41952;SDS011;63613;28.200;112.870;2022-11-30T04:04:48;8.20;;;3.85;;
41952;SDS011;63613;28.200;112.870;2022-11-30T04:07:18;8.68;;;3.67;;
41952;SDS011;63613;28.200;112.870;2022-11-30T04:10:05;6.90;;;3.63;;
41952;SDS011;63613;28.200;112.870;2022-11-30T04:12:33;10.88;;;3.97;;
41952;SDS011;63613;28.200;112.870;2022-11-30T04:15:00;7.45;;;3.83;;
41952;SDS011;63613;28.200;112.870;2022-11-30T04:17:27;11.63;;;4.30;;
41952;SDS011;63613;28.200;112.870;2022-11-30T04:19:54;9.65;;;4.20;;
41952;SDS011;63613;28.200;112.870;2022-11-30T04:22:21;10.32;;;4.35;;
41952;SDS011;63613;28.200;112.870;2022-11-30T04:24:48;10.13;;;4.07;;
41952;SDS011;63613;28.200;112.870;2022-11-30T04:27:18;12.23;;;5.00;;
41952;SDS011;63613;28.200;112.870;2022-11-30T04:30:05;10.40;;;4.30;;
41952;SDS011;63613;28.200;112.870;2022-11-30T04:32:33;9.38;;;4.10;;
41952;SDS011;63613;28.200;112.870;2022-11-30T04:35:00;9.60;;;4.25;;
41952;SDS011;63613;28.200;112.870;2022-11-30T04:37:27;12.32;;;5.20;;
41952;SDS011;63613;28.200;112.870;2022-11-30T04:39:54;10.13;;;4.72;;
41952;SDS011;63613;28.200;112.870;2022-11-30T04:42:21;7.28;;;3.95;;
41952;SDS011;63613;28.200;112.870;2022-11-30T04:44:48;9.02;;;4.68;;
41952;SDS011;63613;28.200;112.870;2022-11-30T04:47:18;9.63;;;4.63;;
41952;SDS011;63613;28.200;112.870;2022-11-30T04:49:45;14.05;;;5.40;;
41952;SDS011;63613;28.200;112.870;2022-11-30T04:52:12;10.20;;;4.65;;
41952;SDS011;63613;28.200;112.870;2022-11-30T04:54:43;10.65;;;4.90;;
41952;SDS011;63613;28.200;112.870;2022-11-30T04:57:10;9.10;;;4.72;;
41952;SDS011;63613;28.200;112.870;2022-11-30T04:59:37;8.70;;;5.18;;
41952;SDS011;63613;28.200;112.870;2022-11-30T05:02:04;13.15;;;5.10;;
41952;SDS011;63613;28.200;112.870;2022-11-30T05:04:31;10.07;;;4.88;;
41952;SDS011;63613;28.200;112.870;2022-11-30T05:06:58;11.68;;;5.05;;
41952;SDS011;63613;28.200;112.870;2022-11-30T05:09:46;9.40;;;4.57;;
41952;SDS011;63613;28.200;112.870;2022-11-30T05:12:13;12.15;;;5.30;;
41952;SDS011;63613;28.200;112.870;2022-11-30T05:14:41;13.05;;;5.57;;
41952;SDS011;63613;28.200;112.870;2022-11-30T05:17:09;9.98;;;4.72;;
41952;SDS011;63613;28.200;112.870;2022-11-30T05:19:42;7.88;;;5.13;;
41952;SDS011;63613;28.200;112.870;2022-11-30T05:22:09;8.38;;;5.20;;
41952;SDS011;63613;28.200;112.870;2022-11-30T05:24:56;10.55;;;5.20;;
41952;SDS011;63613;28.200;112.870;2022-11-30T05:27:23;8.38;;;4.30;;
41952;SDS011;63613;28.200;112.870;2022-11-30T05:29:51;10.27;;;5.20;;
41952;SDS011;63613;28.200;112.870;2022-11-30T05:32:18;11.43;;;4.80;;
41952;SDS011;63613;28.200;112.870;2022-11-30T05:35:05;9.98;;;5.07;;
41952;SDS011;63613;28.200;112.870;2022-11-30T05:37:34;11.15;;;4.85;;
41952;SDS011;63613;28.200;112.870;2022-11-30T05:40:01;10.63;;;4.40;;
41952;SDS011;63613;28.200;112.870;2022-11-30T05:42:32;8.27;;;4.53;;
41952;SDS011;63613;28.200;112.870;2022-11-30T05:44:59;7.25;;;4.57;;
41952;SDS011;63613;28.200;112.870;2022-11-30T05:47:29;12.68;;;5.13;;
41952;SDS011;63613;28.200;112.870;2022-11-30T05:49:58;6.93;;;4.38;;
41952;SDS011;63613;28.200;112.870;2022-11-30T05:52:25;7.97;;;4.50;;
41952;SDS011;63613;28.200;112.870;2022-11-30T05:54:53;8.30;;;4.53;;
41952;SDS011;63613;28.200;112.870;2022-11-30T05:57:20;8.68;;;4.28;;
41952;SDS011;63613;28.200;112.870;2022-11-30T05:59:47;9.65;;;4.32;;
41952;SDS011;63613;28.200;112.870;2022-11-30T06:02:14;10.40;;;4.43;;
41952;SDS011;63613;28.200;112.870;2022-11-30T06:04:42;7.90;;;4.32;;
41952;SDS011;63613;28.200;112.870;2022-11-30T06:07:11;8.48;;;4.88;;
41952;SDS011;63613;28.200;112.870;2022-11-30T06:09:38;7.55;;;5.03;;
41952;SDS011;63613;28.200;112.870;2022-11-30T06:12:06;10.25;;;4.65;;
41952;SDS011;63613;28.200;112.870;2022-11-30T06:14:33;10.30;;;4.43;;
41952;SDS011;63613;28.200;112.870;2022-11-30T06:17:00;9.13;;;4.22;;
41952;SDS011;63613;28.200;112.870;2022-11-30T06:19:28;8.77;;;4.70;;
41952;SDS011;63613;28.200;112.870;2022-11-30T06:22:15;10.55;;;4.70;;
41952;SDS011;63613;28.200;112.870;2022-11-30T06:24:42;8.73;;;4.82;;
41952;SDS011;63613;28.200;112.870;2022-11-30T06:27:09;9.27;;;4.95;;
41952;SDS011;63613;28.200;112.870;2022-11-30T06:29:38;10.95;;;5.22;;
41952;SDS011;63613;28.200;112.870;2022-11-30T06:32:08;8.55;;;4.85;;
41952;SDS011;63613;28.200;112.870;2022-11-30T06:34:35;8.77;;;4.35;;
41952;SDS011;63613;28.200;112.870;2022-11-30T06:37:04;11.00;;;4.65;;
41952;SDS011;63613;28.200;112.870;2022-11-30T06:39:31;9.43;;;4.32;;
41952;SDS011;63613;28.200;112.870;2022-11-30T06:41:58;7.28;;;4.00;;
41952;SDS011;63613;28.200;112.870;2022-11-30T06:44:25;8.80;;;4.82;;
41952;SDS011;63613;28.200;112.870;2022-11-30T06:46:52;6.53;;;4.75;;
41952;SDS011;63613;28.200;112.870;2022-11-30T06:49:20;10.05;;;4.50;;
41952;SDS011;63613;28.200;112.870;2022-11-30T06:52:08;9.32;;;5.10;;
41952;SDS011;63613;28.200;112.870;2022-11-30T06:54:37;7.93;;;4.60;;
41952;SDS011;63613;28.200;112.870;2022-11-30T06:57:05;8.93;;;4.80;;
41952;SDS011;63613;28.200;112.870;2022-11-30T06:59:32;8.70;;;4.70;;
41952;SDS011;63613;28.200;112.870;2022-11-30T07:02:01;8.02;;;4.78;;
41952;SDS011;63613;28.200;112.870;2022-11-30T07:04:28;7.07;;;4.95;;
41952;SDS011;63613;28.200;112.870;2022-11-30T07:07:15;6.50;;;4.28;;
41952;SDS011;63613;28.200;112.870;2022-11-30T07:09:44;7.10;;;4.78;;
41952;SDS011;63613;28.200;112.870;2022-11-30T07:12:11;9.52;;;5.35;;
41952;SDS011;63613;28.200;112.870;2022-11-30T07:14:38;7.82;;;5.07;;
41952;SDS011;63613;28.200;112.870;2022-11-30T07:17:08;10.88;;;5.18;;
41952;SDS011;63613;28.200;112.870;2022-11-30T07:19:37;7.25;;;4.88;;
41952;SDS011;63613;28.200;112.870;2022-11-30T07:22:04;7.18;;;4.95;;
41952;SDS011;63613;28.200;112.870;2022-11-30T07:24:31;7.72;;;4.65;;
41952;SDS011;63613;28.200;112.870;2022-11-30T07:27:17;10.38;;;5.50;;
41952;SDS011;63613;28.200;112.870;2022-11-30T07:29:45;10.02;;;5.25;;
41952;SDS011;63613;28.200;112.870;2022-11-30T07:32:17;9.05;;;5.03;;
41952;SDS011;63613;28.200;112.870;2022-11-30T07:34:44;8.32;;;5.55;;
41952;SDS011;63613;28.200;112.870;2022-11-30T07:37:13;10.40;;;5.50;;
41952;SDS011;63613;28.200;112.870;2022-11-30T07:39:41;10.98;;;5.57;;
41952;SDS011;63613;28.200;112.870;2022-11-30T07:42:08;8.02;;;5.38;;
41952;SDS011;63613;28.200;112.870;2022-11-30T07:44:38;10.43;;;5.90;;
41952;SDS011;63613;28.200;112.870;2022-11-30T07:47:05;9.70;;;6.15;;
41952;SDS011;63613;28.200;112.870;2022-11-30T07:49:32;7.70;;;6.07;;
41952;SDS011;63613;28.200;112.870;2022-11-30T07:52:00;10.65;;;6.22;;
41952;SDS011;63613;28.200;112.870;2022-11-30T07:54:29;10.95;;;6.65;;
41952;SDS011;63613;28.200;112.870;2022-11-30T07:56:56;9.65;;;6.57;;
41952;SDS011;63613;28.200;112.870;2022-11-30T07:59:23;11.52;;;6.75;;
41952;SDS011;63613;28.200;112.870;2022-11-30T08:01:53;9.90;;;5.97;;
41952;SDS011;63613;28.200;112.870;2022-11-30T08:06:54;12.73;;;6.55;;
41952;SDS011;63613;28.200;112.870;2022-11-30T08:09:21;12.15;;;6.45;;
41952;SDS011;63613;28.200;112.870;2022-11-30T08:11:48;10.25;;;6.65;;
41952;SDS011;63613;28.200;112.870;2022-11-30T08:14:18;9.57;;;6.50;;
41952;SDS011;63613;28.200;112.870;2022-11-30T08:16:45;12.65;;;6.50;;
41952;SDS011;63613;28.200;112.870;2022-11-30T08:19:13;10.73;;;6.47;;
41952;SDS011;63613;28.200;112.870;2022-11-30T08:21:40;11.45;;;6.07;;
41952;SDS011;63613;28.200;112.870;2022-11-30T08:24:08;10.43;;;6.30;;
41952;SDS011;63613;28.200;112.870;2022-11-30T08:26:40;13.43;;;6.55;;
41952;SDS011;63613;28.200;112.870;2022-11-30T08:29:08;12.57;;;7.10;;
41952;SDS011;63613;28.200;112.870;2022-11-30T08:31:36;11.25;;;6.28;;
41952;SDS011;63613;28.200;112.870;2022-11-30T08:34:05;12.65;;;7.22;;
41952;SDS011;63613;28.200;112.870;2022-11-30T08:36:34;11.20;;;6.95;;
41952;SDS011;63613;28.200;112.870;2022-11-30T08:39:02;9.13;;;6.60;;
41952;SDS011;63613;28.200;112.870;2022-11-30T08:41:34;10.40;;;6.60;;
41952;SDS011;63613;28.200;112.870;2022-11-30T08:44:03;8.35;;;6.18;;
41952;SDS011;63613;28.200;112.870;2022-11-30T08:46:32;13.38;;;7.18;;
41952;SDS011;63613;28.200;112.870;2022-11-30T08:48:59;11.20;;;6.70;;
41952;SDS011;63613;28.200;112.870;2022-11-30T08:51:27;11.68;;;6.38;;
41952;SDS011;63613;28.200;112.870;2022-11-30T08:53:54;12.57;;;6.47;;
41952;SDS011;63613;28.200;112.870;2022-11-30T08:56:24;15.10;;;6.45;;
41952;SDS011;63613;28.200;112.870;2022-11-30T08:58:51;12.00;;;6.70;;
41952;SDS011;63613;28.200;112.870;2022-11-30T09:01:29;14.75;;;6.18;;
41952;SDS011;63613;28.200;112.870;2022-11-30T09:04:07;14.35;;;6.30;;
41952;SDS011;63613;28.200;112.870;2022-11-30T09:06:35;13.73;;;7.13;;
41952;SDS011;63613;28.200;112.870;2022-11-30T09:09:05;12.20;;;7.85;;
41952;SDS011;63613;28.200;112.870;2022-11-30T09:11:32;13.32;;;6.75;;
41952;SDS011;63613;28.200;112.870;2022-11-30T09:14:02;13.95;;;7.15;;
41952;SDS011;63613;28.200;112.870;2022-11-30T09:16:33;9.70;;;5.85;;
41952;SDS011;63613;28.200;112.870;2022-11-30T09:19:05;11.70;;;6.40;;
41952;SDS011;63613;28.200;112.870;2022-11-30T09:21:32;12.68;;;6.03;;
41952;SDS011;63613;28.200;112.870;2022-11-30T09:23:59;13.52;;;6.97;;
41952;SDS011;63613;28.200;112.870;2022-11-30T09:26:46;15.48;;;7.25;;
41952;SDS011;63613;28.200;112.870;2022-11-30T09:29:22;15.60;;;6.95;;
41952;SDS011;63613;28.200;112.870;2022-11-30T09:31:50;12.98;;;6.38;;
41952;SDS011;63613;28.200;112.870;2022-11-30T09:34:17;9.32;;;6.50;;
41952;SDS011;63613;28.200;112.870;2022-11-30T09:36:44;12.90;;;6.90;;
41952;SDS011;63613;28.200;112.870;2022-11-30T09:39:11;13.75;;;6.78;;
41952;SDS011;63613;28.200;112.870;2022-11-30T09:44:16;14.13;;;6.30;;
41952;SDS011;63613;28.200;112.870;2022-11-30T09:46:54;11.35;;;6.38;;
41952;SDS011;63613;28.200;112.870;2022-11-30T09:49:24;12.30;;;6.72;;
41952;SDS011;63613;28.200;112.870;2022-11-30T09:52:05;13.23;;;6.25;;
41952;SDS011;63613;28.200;112.870;2022-11-30T09:54:38;11.57;;;6.37;;
41952;SDS011;63613;28.200;112.870;2022-11-30T09:57:29;11.65;;;6.97;;
41952;SDS011;63613;28.200;112.870;2022-11-30T09:59:57;13.68;;;6.78;;
41952;SDS011;63613;28.200;112.870;2022-11-30T10:02:32;11.93;;;6.93;;
41952;SDS011;63613;28.200;112.870;2022-11-30T10:05:10;14.73;;;6.88;;
41952;SDS011;63613;28.200;112.870;2022-11-30T10:07:58;13.63;;;6.03;;
41952;SDS011;63613;28.200;112.870;2022-11-30T10:17:10;13.18;;;6.95;;
41952;SDS011;63613;28.200;112.870;2022-11-30T10:22:43;12.02;;;6.45;;
41952;SDS011;63613;28.200;112.870;2022-11-30T10:28:48;16.52;;;7.50;;
41952;SDS011;63613;28.200;112.870;2022-11-30T10:31:10;13.68;;;7.00;;
41952;SDS011;63613;28.200;112.870;2022-11-30T10:33:42;13.23;;;6.88;;
41952;SDS011;63613;28.200;112.870;2022-11-30T10:36:23;16.95;;;7.40;;
41952;SDS011;63613;28.200;112.870;2022-11-30T10:41:54;10.45;;;5.70;;
41952;SDS011;63613;28.200;112.870;2022-11-30T10:44:30;11.02;;;6.95;;
41952;SDS011;63613;28.200;112.870;2022-11-30T10:47:15;12.48;;;7.25;;
41952;SDS011;63613;28.200;112.870;2022-11-30T10:49:49;14.07;;;7.40;;
41952;SDS011;63613;28.200;112.870;2022-11-30T10:52:22;11.23;;;6.95;;
41952;SDS011;63613;28.200;112.870;2022-11-30T10:55:11;10.35;;;6.40;;
41952;SDS011;63613;28.200;112.870;2022-11-30T10:57:54;13.60;;;7.38;;
41952;SDS011;63613;28.200;112.870;2022-11-30T11:00:29;13.00;;;7.20;;
41952;SDS011;63613;28.200;112.870;2022-11-30T11:02:56;12.32;;;7.32;;
41952;SDS011;63613;28.200;112.870;2022-11-30T11:07:56;14.00;;;7.47;;
41952;SDS011;63613;28.200;112.870;2022-11-30T11:13:15;13.02;;;7.13;;
41952;SDS011;63613;28.200;112.870;2022-11-30T11:16:17;12.75;;;7.57;;
41952;SDS011;63613;28.200;112.870;2022-11-30T11:18:53;16.85;;;8.52;;
41952;SDS011;63613;28.200;112.870;2022-11-30T11:21:22;11.63;;;7.78;;
41952;SDS011;63613;28.200;112.870;2022-11-30T11:23:53;17.10;;;8.60;;
41952;SDS011;63613;28.200;112.870;2022-11-30T11:26:23;14.02;;;8.90;;
41952;SDS011;63613;28.200;112.870;2022-11-30T11:28:53;13.10;;;8.27;;
41952;SDS011;63613;28.200;112.870;2022-11-30T11:31:32;17.63;;;7.82;;
41952;SDS011;63613;28.200;112.870;2022-11-30T11:34:07;17.67;;;8.38;;
41952;SDS011;63613;28.200;112.870;2022-11-30T11:39:57;14.70;;;8.20;;
41952;SDS011;63613;28.200;112.870;2022-11-30T11:42:40;15.50;;;8.90;;
41952;SDS011;63613;28.200;112.870;2022-11-30T11:45:14;14.45;;;7.68;;
41952;SDS011;63613;28.200;112.870;2022-11-30T11:47:46;17.60;;;8.68;;
41952;SDS011;63613;28.200;112.870;2022-11-30T11:50:25;16.40;;;8.23;;
41952;SDS011;63613;28.200;112.870;2022-11-30T11:55:54;17.52;;;7.85;;
41952;SDS011;63613;28.200;112.870;2022-11-30T12:01:54;13.88;;;7.13;;
41952;SDS011;63613;28.200;112.870;2022-11-30T12:04:32;15.45;;;8.45;;
41952;SDS011;63613;28.200;112.870;2022-11-30T12:10:35;17.58;;;9.00;;
41952;SDS011;63613;28.200;112.870;2022-11-30T12:13:31;14.07;;;8.20;;
41952;SDS011;63613;28.200;112.870;2022-11-30T12:19:07;15.07;;;8.60;;
41952;SDS011;63613;28.200;112.870;2022-11-30T12:27:24;13.57;;;7.57;;
41952;SDS011;63613;28.200;112.870;2022-11-30T12:38:10;11.73;;;7.82;;
41952;SDS011;63613;28.200;112.870;2022-11-30T12:40:52;17.67;;;9.10;;
41952;SDS011;63613;28.200;112.870;2022-11-30T12:43:41;14.55;;;7.82;;
41952;SDS011;63613;28.200;112.870;2022-11-30T12:46:52;12.55;;;7.88;;
41952;SDS011;63613;28.200;112.870;2022-11-30T12:52:36;17.50;;;7.80;;
41952;SDS011;63613;28.200;112.870;2022-11-30T12:55:39;11.68;;;8.07;;
41952;SDS011;63613;28.200;112.870;2022-11-30T12:58:29;16.48;;;8.38;;
41952;SDS011;63613;28.200;112.870;2022-11-30T13:04:06;16.98;;;8.82;;
41952;SDS011;63613;28.200;112.870;2022-11-30T13:12:43;20.85;;;11.43;;
41952;SDS011;63613;28.200;112.870;2022-11-30T13:15:18;16.70;;;10.90;;
41952;SDS011;63613;28.200;112.870;2022-11-30T13:17:55;20.02;;;10.68;;
41952;SDS011;63613;28.200;112.870;2022-11-30T13:20:44;19.55;;;11.68;;
41952;SDS011;63613;28.200;112.870;2022-11-30T13:42:09;19.83;;;10.05;;
41952;SDS011;63613;28.200;112.870;2022-11-30T13:44:55;20.40;;;9.23;;
41952;SDS011;63613;28.200;112.870;2022-11-30T13:47:49;16.20;;;9.13;;
41952;SDS011;63613;28.200;112.870;2022-11-30T13:50:36;14.88;;;8.82;;
41952;SDS011;63613;28.200;112.870;2022-11-30T13:53:49;16.58;;;9.35;;
41952;SDS011;63613;28.200;112.870;2022-11-30T13:56:40;14.48;;;8.45;;
41952;SDS011;63613;28.200;112.870;2022-11-30T14:10:28;18.70;;;8.45;;
41952;SDS011;63613;28.200;112.870;2022-11-30T14:20:35;16.08;;;8.27;;
41952;SDS011;63613;28.200;112.870;2022-11-30T14:23:20;12.43;;;7.88;;
41952;SDS011;63613;28.200;112.870;2022-11-30T14:26:10;14.43;;;7.35;;
41952;SDS011;63613;28.200;112.870;2022-11-30T14:31:30;12.77;;;7.30;;
41952;SDS011;63613;28.200;112.870;2022-11-30T14:37:31;14.45;;;7.05;;
41952;SDS011;63613;28.200;112.870;2022-11-30T14:39:53;12.68;;;7.07;;
41952;SDS011;63613;28.200;112.870;2022-11-30T14:42:27;12.82;;;7.30;;
41952;SDS011;63613;28.200;112.870;2022-11-30T14:44:56;10.82;;;6.78;;
41952;SDS011;63613;28.200;112.870;2022-11-30T14:47:28;12.70;;;7.03;;
41952;SDS011;63613;28.200;112.870;2022-11-30T14:49:57;14.70;;;7.35;;
41952;SDS011;63613;28.200;112.870;2022-11-30T14:52:46;10.30;;;6.45;;
41952;SDS011;63613;28.200;112.870;2022-11-30T14:58:25;12.75;;;6.82;;
41952;SDS011;63613;28.200;112.870;2022-11-30T15:00:57;12.45;;;6.38;;
41952;SDS011;63613;28.200;112.870;2022-11-30T15:03:27;14.10;;;6.93;;
41952;SDS011;63613;28.200;112.870;2022-11-30T15:05:58;13.38;;;6.55;;
41952;SDS011;63613;28.200;112.870;2022-11-30T15:08:33;13.90;;;7.05;;
41952;SDS011;63613;28.200;112.870;2022-11-30T15:11:04;13.68;;;7.15;;
41952;SDS011;63613;28.200;112.870;2022-11-30T15:13:40;12.23;;;7.03;;
41952;SDS011;63613;28.200;112.870;2022-11-30T15:16:48;12.00;;;6.72;;
41952;SDS011;63613;28.200;112.870;2022-11-30T15:21:55;15.27;;;7.18;;
41952;SDS011;63613;28.200;112.870;2022-11-30T15:24:23;14.43;;;6.28;;
41952;SDS011;63613;28.200;112.870;2022-11-30T15:26:54;14.98;;;7.20;;
41952;SDS011;63613;28.200;112.870;2022-11-30T15:29:39;15.85;;;7.28;;
41952;SDS011;63613;28.200;112.870;2022-11-30T15:32:25;12.65;;;6.68;;
41952;SDS011;63613;28.200;112.870;2022-11-30T15:34:54;10.93;;;6.60;;
41952;SDS011;63613;28.200;112.870;2022-11-30T15:37:32;14.45;;;7.15;;
41952;SDS011;63613;28.200;112.870;2022-11-30T15:40:04;12.57;;;6.90;;
41952;SDS011;63613;28.200;112.870;2022-11-30T15:42:34;12.43;;;5.80;;
41952;SDS011;63613;28.200;112.870;2022-11-30T15:47:41;12.20;;;5.88;;
41952;SDS011;63613;28.200;112.870;2022-11-30T15:52:58;10.88;;;6.25;;
41952;SDS011;63613;28.200;112.870;2022-11-30T15:55:49;14.48;;;7.03;;
41952;SDS011;63613;28.200;112.870;2022-11-30T15:58:38;8.68;;;5.65;;
41952;SDS011;63613;28.200;112.870;2022-11-30T16:01:25;16.20;;;6.50;;
41952;SDS011;63613;28.200;112.870;2022-11-30T16:04:27;11.30;;;6.20;;
41952;SDS011;63613;28.200;112.870;2022-11-30T16:07:17;13.90;;;6.07;;
41952;SDS011;63613;28.200;112.870;2022-11-30T16:09:45;13.75;;;7.03;;
41952;SDS011;63613;28.200;112.870;2022-11-30T16:12:16;10.02;;;5.78;;
41952;SDS011;63613;28.200;112.870;2022-11-30T16:14:54;13.07;;;6.25;;
41952;SDS011;63613;28.200;112.870;2022-11-30T16:17:24;13.27;;;6.20;;
41952;SDS011;63613;28.200;112.870;2022-11-30T16:19:52;11.10;;;6.10;;
41952;SDS011;63613;28.200;112.870;2022-11-30T16:22:20;13.68;;;6.35;;
41952;SDS011;63613;28.200;112.870;2022-11-30T16:24:47;15.00;;;6.97;;
41952;SDS011;63613;28.200;112.870;2022-11-30T16:27:14;11.95;;;6.15;;
41952;SDS011;63613;28.200;112.870;2022-11-30T16:29:45;16.05;;;6.32;;
41952;SDS011;63613;28.200;112.870;2022-11-30T16:32:13;10.20;;;6.22;;
41952;SDS011;63613;28.200;112.870;2022-11-30T16:34:43;10.30;;;6.40;;
41952;SDS011;63613;28.200;112.870;2022-11-30T16:37:12;12.65;;;5.57;;
41952;SDS011;63613;28.200;112.870;2022-11-30T16:39:42;10.23;;;6.28;;
41952;SDS011;63613;28.200;112.870;2022-11-30T16:42:12;13.15;;;5.97;;
41952;SDS011;63613;28.200;112.870;2022-11-30T16:44:39;14.10;;;6.53;;
41952;SDS011;63613;28.200;112.870;2022-11-30T16:47:09;15.60;;;6.68;;
41952;SDS011;63613;28.200;112.870;2022-11-30T16:49:57;16.73;;;5.93;;
41952;SDS011;63613;28.200;112.870;2022-11-30T16:52:25;11.00;;;5.80;;
41952;SDS011;63613;28.200;112.870;2022-11-30T16:54:52;14.52;;;6.15;;
41952;SDS011;63613;28.200;112.870;2022-11-30T16:57:19;13.70;;;6.15;;
41952;SDS011;63613;28.200;112.870;2022-11-30T16:59:46;11.63;;;6.10;;
41952;SDS011;63613;28.200;112.870;2022-11-30T17:02:15;14.27;;;5.65;;